sensor_id;sensor_type;location;lat;lon;timestamp;P1;durP1;ratioP1;P2;durP2;ratioP2
33830;SDS011;20137;48.834;8.732;2022-11-06T00:02:03;14.57;;;7.45;;
33830;SDS011;20137;48.834;8.732;2022-11-06T00:04:29;14.02;;;6.97;;
33830;SDS011;20137;48.834;8.732;2022-11-06T00:06:55;15.98;;;6.63;;
33830;SDS011;20137;48.834;8.732;2022-11-06T00:09:21;12.70;;;6.57;;
33830;SDS011;20137;48.834;8.732;2022-11-06T00:11:48;14.98;;;5.95;;
33830;SDS011;20137;48.834;8.732;2022-11-06T00:14:14;13.05;;;6.38;;
33830;SDS011;20137;48.834;8.732;2022-11-06T00:16:41;12.15;;;5.80;;
33830;SDS011;20137;48.834;8.732;2022-11-06T00:19:07;9.80;;;6.00;;
33830;SDS011;20137;48.834;8.732;2022-11-06T00:21:33;11.02;;;6.07;;
33830;SDS011;20137;48.834;8.732;2022-11-06T00:24:00;11.55;;;6.85;;
33830;SDS011;20137;48.834;8.732;2022-11-06T00:26:27;12.82;;;6.93;;
33830;SDS011;20137;48.834;8.732;2022-11-06T00:28:53;12.85;;;7.88;;
33830;SDS011;20137;48.834;8.732;2022-11-06T00:31:22;16.27;;;8.02;;
33830;SDS011;20137;48.834;8.732;2022-11-06T00:33:48;15.23;;;8.48;;
33830;SDS011;20137;48.834;8.732;2022-11-06T00:36:18;14.40;;;8.30;;
33830;SDS011;20137;48.834;8.732;2022-11-06T00:38:45;65.13;;;34.25;;
33830;SDS011;20137;48.834;8.732;2022-11-06T00:41:12;59.38;;;35.00;;
33830;SDS011;20137;48.834;8.732;2022-11-06T00:43:39;50.05;;;28.95;;
33830;SDS011;20137;48.834;8.732;2022-11-06T00:46:11;16.90;;;9.85;;
33830;SDS011;20137;48.834;8.732;2022-11-06T00:48:38;17.70;;;8.13;;
33830;SDS011;20137;48.834;8.732;2022-11-06T00:51:09;14.18;;;8.07;;
33830;SDS011;20137;48.834;8.732;2022-11-06T00:53:36;11.85;;;7.05;;
33830;SDS011;20137;48.834;8.732;2022-11-06T00:56:03;13.15;;;6.78;;
33830;SDS011;20137;48.834;8.732;2022-11-06T00:58:29;18.77;;;6.80;;
33830;SDS011;20137;48.834;8.732;2022-11-06T01:00:55;14.68;;;6.90;;
33830;SDS011;20137;48.834;8.732;2022-11-06T01:03:21;13.07;;;5.32;;
33830;SDS011;20137;48.834;8.732;2022-11-06T01:05:47;12.75;;;5.57;;
33830;SDS011;20137;48.834;8.732;2022-11-06T01:08:13;11.65;;;6.10;;
33830;SDS011;20137;48.834;8.732;2022-11-06T01:10:39;13.70;;;6.40;;
33830;SDS011;20137;48.834;8.732;2022-11-06T01:13:05;13.93;;;6.10;;
33830;SDS011;20137;48.834;8.732;2022-11-06T01:15:34;16.27;;;5.93;;
33830;SDS011;20137;48.834;8.732;2022-11-06T01:18:00;9.50;;;5.10;;
33830;SDS011;20137;48.834;8.732;2022-11-06T01:20:26;13.95;;;5.30;;
33830;SDS011;20137;48.834;8.732;2022-11-06T01:22:52;12.18;;;5.50;;
33830;SDS011;20137;48.834;8.732;2022-11-06T01:25:18;11.23;;;4.75;;
33830;SDS011;20137;48.834;8.732;2022-11-06T01:27:44;11.30;;;5.65;;
33830;SDS011;20137;48.834;8.732;2022-11-06T01:30:10;11.15;;;4.93;;
33830;SDS011;20137;48.834;8.732;2022-11-06T01:32:36;9.18;;;5.07;;
33830;SDS011;20137;48.834;8.732;2022-11-06T01:35:02;12.10;;;5.30;;
33830;SDS011;20137;48.834;8.732;2022-11-06T01:37:28;11.00;;;5.50;;
33830;SDS011;20137;48.834;8.732;2022-11-06T01:39:54;9.40;;;5.28;;
33830;SDS011;20137;48.834;8.732;2022-11-06T01:42:20;10.32;;;4.82;;
33830;SDS011;20137;48.834;8.732;2022-11-06T01:47:25;9.82;;;4.72;;
33830;SDS011;20137;48.834;8.732;2022-11-06T01:49:53;8.30;;;4.20;;
33830;SDS011;20137;48.834;8.732;2022-11-06T01:52:19;9.75;;;4.07;;
33830;SDS011;20137;48.834;8.732;2022-11-06T01:54:47;11.88;;;5.05;;
33830;SDS011;20137;48.834;8.732;2022-11-06T01:57:15;11.00;;;4.45;;
33830;SDS011;20137;48.834;8.732;2022-11-06T01:59:42;11.98;;;4.00;;
33830;SDS011;20137;48.834;8.732;2022-11-06T02:02:08;6.30;;;3.67;;
33830;SDS011;20137;48.834;8.732;2022-11-06T02:04:36;10.98;;;4.55;;
33830;SDS011;20137;48.834;8.732;2022-11-06T02:07:03;12.48;;;4.60;;
33830;SDS011;20137;48.834;8.732;2022-11-06T02:09:29;11.07;;;4.40;;
33830;SDS011;20137;48.834;8.732;2022-11-06T02:12:03;7.50;;;3.97;;
33830;SDS011;20137;48.834;8.732;2022-11-06T02:14:33;10.23;;;4.80;;
33830;SDS011;20137;48.834;8.732;2022-11-06T02:17:04;11.10;;;4.45;;
33830;SDS011;20137;48.834;8.732;2022-11-06T02:19:38;7.93;;;3.80;;
33830;SDS011;20137;48.834;8.732;2022-11-06T02:24:54;8.05;;;4.55;;
33830;SDS011;20137;48.834;8.732;2022-11-06T02:27:23;11.77;;;4.50;;
33830;SDS011;20137;48.834;8.732;2022-11-06T02:32:19;8.95;;;4.43;;
33830;SDS011;20137;48.834;8.732;2022-11-06T02:34:47;7.30;;;4.22;;
33830;SDS011;20137;48.834;8.732;2022-11-06T02:37:17;7.75;;;3.92;;
33830;SDS011;20137;48.834;8.732;2022-11-06T02:39:44;10.93;;;4.57;;
33830;SDS011;20137;48.834;8.732;2022-11-06T02:42:12;11.52;;;4.65;;
33830;SDS011;20137;48.834;8.732;2022-11-06T02:44:40;7.72;;;4.90;;
33830;SDS011;20137;48.834;8.732;2022-11-06T02:47:08;12.68;;;6.68;;
33830;SDS011;20137;48.834;8.732;2022-11-06T02:49:39;11.57;;;5.97;;
33830;SDS011;20137;48.834;8.732;2022-11-06T02:52:10;15.05;;;6.75;;
33830;SDS011;20137;48.834;8.732;2022-11-06T02:54:40;11.18;;;5.95;;
33830;SDS011;20137;48.834;8.732;2022-11-06T02:57:08;10.73;;;5.38;;
33830;SDS011;20137;48.834;8.732;2022-11-06T02:59:41;9.75;;;5.60;;
33830;SDS011;20137;48.834;8.732;2022-11-06T03:02:11;9.40;;;5.28;;
33830;SDS011;20137;48.834;8.732;2022-11-06T03:04:42;10.70;;;5.55;;
33830;SDS011;20137;48.834;8.732;2022-11-06T03:07:14;11.02;;;6.07;;
33830;SDS011;20137;48.834;8.732;2022-11-06T03:09:42;12.65;;;5.78;;
33830;SDS011;20137;48.834;8.732;2022-11-06T03:14:44;11.40;;;5.90;;
33830;SDS011;20137;48.834;8.732;2022-11-06T03:17:22;12.57;;;5.40;;
33830;SDS011;20137;48.834;8.732;2022-11-06T03:22:27;8.10;;;5.18;;
33830;SDS011;20137;48.834;8.732;2022-11-06T03:27:23;14.02;;;5.88;;
33830;SDS011;20137;48.834;8.732;2022-11-06T03:30:03;11.60;;;6.15;;
33830;SDS011;20137;48.834;8.732;2022-11-06T03:32:37;13.82;;;4.88;;
33830;SDS011;20137;48.834;8.732;2022-11-06T03:37:41;12.38;;;5.85;;
33830;SDS011;20137;48.834;8.732;2022-11-06T03:40:10;13.63;;;5.97;;
33830;SDS011;20137;48.834;8.732;2022-11-06T03:42:38;13.13;;;5.65;;
33830;SDS011;20137;48.834;8.732;2022-11-06T03:45:08;11.50;;;5.68;;
33830;SDS011;20137;48.834;8.732;2022-11-06T03:47:36;8.80;;;4.75;;
33830;SDS011;20137;48.834;8.732;2022-11-06T03:50:09;10.13;;;5.53;;
33830;SDS011;20137;48.834;8.732;2022-11-06T03:52:38;14.40;;;5.72;;
33830;SDS011;20137;48.834;8.732;2022-11-06T03:55:07;13.40;;;5.60;;
33830;SDS011;20137;48.834;8.732;2022-11-06T03:57:36;13.93;;;5.28;;
33830;SDS011;20137;48.834;8.732;2022-11-06T04:00:03;11.95;;;4.45;;
33830;SDS011;20137;48.834;8.732;2022-11-06T04:02:30;8.40;;;4.63;;
33830;SDS011;20137;48.834;8.732;2022-11-06T04:04:59;10.10;;;5.05;;
33830;SDS011;20137;48.834;8.732;2022-11-06T04:07:29;10.98;;;5.10;;
33830;SDS011;20137;48.834;8.732;2022-11-06T04:09:58;7.05;;;4.35;;
33830;SDS011;20137;48.834;8.732;2022-11-06T04:12:43;10.98;;;5.07;;
33830;SDS011;20137;48.834;8.732;2022-11-06T04:15:32;13.18;;;4.97;;
33830;SDS011;20137;48.834;8.732;2022-11-06T04:17:58;9.20;;;4.70;;
33830;SDS011;20137;48.834;8.732;2022-11-06T04:20:24;13.77;;;6.25;;
33830;SDS011;20137;48.834;8.732;2022-11-06T04:23:19;11.05;;;5.18;;
33830;SDS011;20137;48.834;8.732;2022-11-06T04:28:42;12.63;;;5.68;;
33830;SDS011;20137;48.834;8.732;2022-11-06T04:31:33;8.20;;;5.18;;
33830;SDS011;20137;48.834;8.732;2022-11-06T04:41:27;9.18;;;5.32;;
33830;SDS011;20137;48.834;8.732;2022-11-06T04:46:31;12.00;;;5.47;;
33830;SDS011;20137;48.834;8.732;2022-11-06T04:48:58;12.35;;;5.45;;
33830;SDS011;20137;48.834;8.732;2022-11-06T04:51:25;8.18;;;5.53;;
33830;SDS011;20137;48.834;8.732;2022-11-06T04:53:52;8.10;;;5.47;;
33830;SDS011;20137;48.834;8.732;2022-11-06T04:56:26;8.88;;;4.88;;
33830;SDS011;20137;48.834;8.732;2022-11-06T04:58:53;8.63;;;5.20;;
33830;SDS011;20137;48.834;8.732;2022-11-06T05:01:19;8.93;;;4.78;;
33830;SDS011;20137;48.834;8.732;2022-11-06T05:03:45;11.80;;;5.15;;
33830;SDS011;20137;48.834;8.732;2022-11-06T05:06:11;12.07;;;5.55;;
33830;SDS011;20137;48.834;8.732;2022-11-06T05:08:37;11.45;;;4.85;;
33830;SDS011;20137;48.834;8.732;2022-11-06T05:11:04;10.98;;;4.90;;
33830;SDS011;20137;48.834;8.732;2022-11-06T05:13:30;8.82;;;5.07;;
33830;SDS011;20137;48.834;8.732;2022-11-06T05:15:57;10.18;;;4.88;;
33830;SDS011;20137;48.834;8.732;2022-11-06T05:18:23;9.27;;;4.57;;
33830;SDS011;20137;48.834;8.732;2022-11-06T05:20:50;9.27;;;4.47;;
33830;SDS011;20137;48.834;8.732;2022-11-06T05:23:39;10.90;;;5.00;;
33830;SDS011;20137;48.834;8.732;2022-11-06T05:26:06;11.10;;;4.22;;
33830;SDS011;20137;48.834;8.732;2022-11-06T05:28:32;7.38;;;4.05;;
33830;SDS011;20137;48.834;8.732;2022-11-06T05:30:58;15.23;;;4.90;;
33830;SDS011;20137;48.834;8.732;2022-11-06T05:33:24;6.85;;;4.07;;
33830;SDS011;20137;48.834;8.732;2022-11-06T05:35:50;9.52;;;4.40;;
33830;SDS011;20137;48.834;8.732;2022-11-06T05:38:16;14.20;;;4.68;;
33830;SDS011;20137;48.834;8.732;2022-11-06T05:40:43;8.10;;;3.83;;
33830;SDS011;20137;48.834;8.732;2022-11-06T05:43:09;9.88;;;4.25;;
33830;SDS011;20137;48.834;8.732;2022-11-06T05:45:35;7.25;;;3.20;;
33830;SDS011;20137;48.834;8.732;2022-11-06T05:48:01;6.70;;;3.28;;
33830;SDS011;20137;48.834;8.732;2022-11-06T05:50:27;8.10;;;3.25;;
33830;SDS011;20137;48.834;8.732;2022-11-06T05:52:53;7.75;;;3.47;;
33830;SDS011;20137;48.834;8.732;2022-11-06T05:55:19;4.10;;;2.83;;
33830;SDS011;20137;48.834;8.732;2022-11-06T05:57:45;7.57;;;3.40;;
33830;SDS011;20137;48.834;8.732;2022-11-06T06:00:11;10.40;;;3.05;;
33830;SDS011;20137;48.834;8.732;2022-11-06T06:02:37;13.15;;;2.70;;
33830;SDS011;20137;48.834;8.732;2022-11-06T06:05:03;6.60;;;3.03;;
33830;SDS011;20137;48.834;8.732;2022-11-06T06:07:30;7.07;;;3.03;;
33830;SDS011;20137;48.834;8.732;2022-11-06T06:09:56;11.00;;;2.75;;
33830;SDS011;20137;48.834;8.732;2022-11-06T06:12:22;7.43;;;3.38;;
33830;SDS011;20137;48.834;8.732;2022-11-06T06:14:50;7.03;;;2.95;;
33830;SDS011;20137;48.834;8.732;2022-11-06T06:17:16;7.85;;;2.80;;
33830;SDS011;20137;48.834;8.732;2022-11-06T06:19:42;6.97;;;3.53;;
33830;SDS011;20137;48.834;8.732;2022-11-06T06:22:08;9.40;;;4.90;;
33830;SDS011;20137;48.834;8.732;2022-11-06T06:24:34;8.57;;;5.43;;
33830;SDS011;20137;48.834;8.732;2022-11-06T06:27:00;6.07;;;3.75;;
33830;SDS011;20137;48.834;8.732;2022-11-06T06:29:27;5.00;;;3.83;;
33830;SDS011;20137;48.834;8.732;2022-11-06T06:31:52;8.48;;;4.82;;
33830;SDS011;20137;48.834;8.732;2022-11-06T06:34:19;8.18;;;3.75;;
33830;SDS011;20137;48.834;8.732;2022-11-06T06:36:47;12.65;;;4.80;;
33830;SDS011;20137;48.834;8.732;2022-11-06T06:39:14;9.73;;;4.55;;
33830;SDS011;20137;48.834;8.732;2022-11-06T06:41:40;9.23;;;4.68;;
33830;SDS011;20137;48.834;8.732;2022-11-06T06:44:06;5.72;;;4.03;;
33830;SDS011;20137;48.834;8.732;2022-11-06T06:46:32;10.52;;;4.30;;
33830;SDS011;20137;48.834;8.732;2022-11-06T06:48:58;10.68;;;4.55;;
33830;SDS011;20137;48.834;8.732;2022-11-06T06:51:24;10.90;;;4.55;;
33830;SDS011;20137;48.834;8.732;2022-11-06T06:53:50;11.38;;;5.38;;
33830;SDS011;20137;48.834;8.732;2022-11-06T06:56:16;9.02;;;4.70;;
33830;SDS011;20137;48.834;8.732;2022-11-06T06:58:42;7.50;;;3.85;;
33830;SDS011;20137;48.834;8.732;2022-11-06T07:01:08;10.60;;;4.38;;
33830;SDS011;20137;48.834;8.732;2022-11-06T07:03:37;7.70;;;3.85;;
33830;SDS011;20137;48.834;8.732;2022-11-06T07:06:04;5.45;;;3.40;;
33830;SDS011;20137;48.834;8.732;2022-11-06T07:08:30;7.90;;;3.25;;
33830;SDS011;20137;48.834;8.732;2022-11-06T07:11:00;6.32;;;4.22;;
33830;SDS011;20137;48.834;8.732;2022-11-06T07:13:26;9.57;;;4.10;;
33830;SDS011;20137;48.834;8.732;2022-11-06T07:15:52;7.07;;;3.70;;
33830;SDS011;20137;48.834;8.732;2022-11-06T07:18:18;9.50;;;3.67;;
33830;SDS011;20137;48.834;8.732;2022-11-06T07:20:44;6.97;;;3.28;;
33830;SDS011;20137;48.834;8.732;2022-11-06T07:23:10;9.50;;;3.50;;
33830;SDS011;20137;48.834;8.732;2022-11-06T07:25:36;7.53;;;3.92;;
33830;SDS011;20137;48.834;8.732;2022-11-06T07:28:06;5.65;;;4.20;;
33830;SDS011;20137;48.834;8.732;2022-11-06T07:30:33;10.27;;;3.55;;
33830;SDS011;20137;48.834;8.732;2022-11-06T07:32:59;7.80;;;4.55;;
33830;SDS011;20137;48.834;8.732;2022-11-06T07:35:26;8.98;;;4.32;;
33830;SDS011;20137;48.834;8.732;2022-11-06T07:37:52;7.15;;;4.03;;
33830;SDS011;20137;48.834;8.732;2022-11-06T07:40:18;10.23;;;4.88;;
33830;SDS011;20137;48.834;8.732;2022-11-06T07:42:44;6.05;;;3.92;;
33830;SDS011;20137;48.834;8.732;2022-11-06T07:45:10;8.55;;;3.92;;
33830;SDS011;20137;48.834;8.732;2022-11-06T07:47:36;4.82;;;3.75;;
33830;SDS011;20137;48.834;8.732;2022-11-06T07:50:02;11.38;;;3.97;;
33830;SDS011;20137;48.834;8.732;2022-11-06T07:52:28;10.00;;;4.20;;
33830;SDS011;20137;48.834;8.732;2022-11-06T07:54:54;6.35;;;3.80;;
33830;SDS011;20137;48.834;8.732;2022-11-06T07:57:20;7.40;;;3.85;;
33830;SDS011;20137;48.834;8.732;2022-11-06T07:59:46;11.73;;;4.40;;
33830;SDS011;20137;48.834;8.732;2022-11-06T08:02:12;5.82;;;3.88;;
33830;SDS011;20137;48.834;8.732;2022-11-06T08:04:39;10.57;;;4.30;;
33830;SDS011;20137;48.834;8.732;2022-11-06T08:07:05;7.45;;;4.38;;
33830;SDS011;20137;48.834;8.732;2022-11-06T08:09:31;7.75;;;4.53;;
33830;SDS011;20137;48.834;8.732;2022-11-06T08:11:57;8.30;;;4.45;;
33830;SDS011;20137;48.834;8.732;2022-11-06T08:14:23;6.38;;;4.32;;
33830;SDS011;20137;48.834;8.732;2022-11-06T08:16:49;9.30;;;5.00;;
33830;SDS011;20137;48.834;8.732;2022-11-06T08:19:15;9.43;;;4.90;;
33830;SDS011;20137;48.834;8.732;2022-11-06T08:21:41;14.20;;;4.75;;
33830;SDS011;20137;48.834;8.732;2022-11-06T08:24:07;9.27;;;4.93;;
33830;SDS011;20137;48.834;8.732;2022-11-06T08:26:33;11.00;;;5.13;;
33830;SDS011;20137;48.834;8.732;2022-11-06T08:28:59;8.85;;;4.80;;
33830;SDS011;20137;48.834;8.732;2022-11-06T08:31:25;10.73;;;5.75;;
33830;SDS011;20137;48.834;8.732;2022-11-06T08:33:52;10.73;;;5.40;;
33830;SDS011;20137;48.834;8.732;2022-11-06T08:36:18;8.90;;;5.85;;
33830;SDS011;20137;48.834;8.732;2022-11-06T08:38:47;10.70;;;5.95;;
33830;SDS011;20137;48.834;8.732;2022-11-06T08:41:14;11.50;;;6.15;;
33830;SDS011;20137;48.834;8.732;2022-11-06T08:43:40;12.45;;;5.85;;
33830;SDS011;20137;48.834;8.732;2022-11-06T08:46:07;12.25;;;6.00;;
33830;SDS011;20137;48.834;8.732;2022-11-06T08:48:34;13.10;;;7.32;;
33830;SDS011;20137;48.834;8.732;2022-11-06T08:51:00;11.25;;;5.43;;
33830;SDS011;20137;48.834;8.732;2022-11-06T08:53:26;12.45;;;5.88;;
33830;SDS011;20137;48.834;8.732;2022-11-06T08:55:52;8.52;;;5.15;;
33830;SDS011;20137;48.834;8.732;2022-11-06T08:58:18;7.47;;;4.63;;
33830;SDS011;20137;48.834;8.732;2022-11-06T09:00:44;7.80;;;4.85;;
33830;SDS011;20137;48.834;8.732;2022-11-06T09:03:13;10.43;;;5.80;;
33830;SDS011;20137;48.834;8.732;2022-11-06T09:05:39;6.20;;;4.55;;
33830;SDS011;20137;48.834;8.732;2022-11-06T09:08:05;7.32;;;4.45;;
33830;SDS011;20137;48.834;8.732;2022-11-06T09:10:31;6.50;;;4.13;;
33830;SDS011;20137;48.834;8.732;2022-11-06T09:12:58;6.95;;;3.95;;
33830;SDS011;20137;48.834;8.732;2022-11-06T09:15:24;5.68;;;3.90;;
33830;SDS011;20137;48.834;8.732;2022-11-06T09:17:50;8.00;;;5.10;;
33830;SDS011;20137;48.834;8.732;2022-11-06T09:20:17;8.15;;;4.88;;
33830;SDS011;20137;48.834;8.732;2022-11-06T09:22:44;6.82;;;4.68;;
33830;SDS011;20137;48.834;8.732;2022-11-06T09:25:10;6.53;;;4.78;;
33830;SDS011;20137;48.834;8.732;2022-11-06T09:27:40;7.50;;;4.25;;
33830;SDS011;20137;48.834;8.732;2022-11-06T09:30:06;6.72;;;3.53;;
33830;SDS011;20137;48.834;8.732;2022-11-06T09:32:33;4.47;;;2.97;;
33830;SDS011;20137;48.834;8.732;2022-11-06T09:34:59;4.88;;;3.70;;
33830;SDS011;20137;48.834;8.732;2022-11-06T09:37:25;10.70;;;3.72;;
33830;SDS011;20137;48.834;8.732;2022-11-06T09:39:51;7.68;;;3.85;;
33830;SDS011;20137;48.834;8.732;2022-11-06T09:42:23;5.63;;;3.92;;
33830;SDS011;20137;48.834;8.732;2022-11-06T09:47:17;9.10;;;4.72;;
33830;SDS011;20137;48.834;8.732;2022-11-06T09:49:52;6.82;;;3.80;;
33830;SDS011;20137;48.834;8.732;2022-11-06T09:54:59;5.82;;;4.00;;
33830;SDS011;20137;48.834;8.732;2022-11-06T09:57:39;7.80;;;3.90;;
33830;SDS011;20137;48.834;8.732;2022-11-06T10:00:09;6.80;;;4.40;;
33830;SDS011;20137;48.834;8.732;2022-11-06T10:02:40;4.90;;;3.60;;
33830;SDS011;20137;48.834;8.732;2022-11-06T10:07:34;6.85;;;4.07;;
33830;SDS011;20137;48.834;8.732;2022-11-06T10:10:01;7.32;;;3.95;;
33830;SDS011;20137;48.834;8.732;2022-11-06T10:15:01;4.60;;;3.53;;
33830;SDS011;20137;48.834;8.732;2022-11-06T10:20:08;10.25;;;3.85;;
33830;SDS011;20137;48.834;8.732;2022-11-06T10:22:38;14.27;;;7.13;;
33830;SDS011;20137;48.834;8.732;2022-11-06T10:30:19;6.10;;;3.60;;
33830;SDS011;20137;48.834;8.732;2022-11-06T10:32:48;4.82;;;3.22;;
33830;SDS011;20137;48.834;8.732;2022-11-06T10:40:13;7.93;;;4.55;;
33830;SDS011;20137;48.834;8.732;2022-11-06T10:42:42;6.53;;;4.20;;
33830;SDS011;20137;48.834;8.732;2022-11-06T10:45:12;5.50;;;3.70;;
33830;SDS011;20137;48.834;8.732;2022-11-06T10:47:41;6.80;;;3.25;;
33830;SDS011;20137;48.834;8.732;2022-11-06T10:50:10;6.65;;;4.10;;
33830;SDS011;20137;48.834;8.732;2022-11-06T10:52:43;5.00;;;3.58;;
33830;SDS011;20137;48.834;8.732;2022-11-06T10:57:41;5.43;;;3.70;;
33830;SDS011;20137;48.834;8.732;2022-11-06T11:00:11;4.85;;;3.55;;
33830;SDS011;20137;48.834;8.732;2022-11-06T11:02:39;5.60;;;3.72;;
33830;SDS011;20137;48.834;8.732;2022-11-06T11:05:11;5.38;;;3.65;;
33830;SDS011;20137;48.834;8.732;2022-11-06T11:07:40;4.28;;;3.33;;
33830;SDS011;20137;48.834;8.732;2022-11-06T11:10:23;5.50;;;3.38;;
33830;SDS011;20137;48.834;8.732;2022-11-06T11:12:51;4.57;;;3.35;;
33830;SDS011;20137;48.834;8.732;2022-11-06T11:15:20;3.92;;;3.00;;
33830;SDS011;20137;48.834;8.732;2022-11-06T11:20:34;5.40;;;3.10;;
33830;SDS011;20137;48.834;8.732;2022-11-06T11:23:17;9.18;;;5.43;;
33830;SDS011;20137;48.834;8.732;2022-11-06T11:25:48;5.63;;;4.03;;
33830;SDS011;20137;48.834;8.732;2022-11-06T11:28:48;5.03;;;3.45;;
33830;SDS011;20137;48.834;8.732;2022-11-06T11:31:08;4.53;;;3.10;;
33830;SDS011;20137;48.834;8.732;2022-11-06T11:33:35;5.57;;;3.60;;
33830;SDS011;20137;48.834;8.732;2022-11-06T11:36:02;4.00;;;3.00;;
33830;SDS011;20137;48.834;8.732;2022-11-06T11:38:30;5.10;;;3.45;;
33830;SDS011;20137;48.834;8.732;2022-11-06T11:41:07;5.05;;;3.20;;
33830;SDS011;20137;48.834;8.732;2022-11-06T11:43:33;4.38;;;2.97;;
33830;SDS011;20137;48.834;8.732;2022-11-06T11:46:13;4.00;;;3.35;;
33830;SDS011;20137;48.834;8.732;2022-11-06T11:53:37;5.75;;;3.10;;
33830;SDS011;20137;48.834;8.732;2022-11-06T11:56:04;5.47;;;3.20;;
33830;SDS011;20137;48.834;8.732;2022-11-06T11:58:31;6.78;;;3.17;;
33830;SDS011;20137;48.834;8.732;2022-11-06T12:01:01;4.00;;;2.75;;
33830;SDS011;20137;48.834;8.732;2022-11-06T12:03:32;3.60;;;2.78;;
33830;SDS011;20137;48.834;8.732;2022-11-06T12:06:08;6.30;;;3.92;;
33830;SDS011;20137;48.834;8.732;2022-11-06T12:08:35;14.32;;;7.40;;
33830;SDS011;20137;48.834;8.732;2022-11-06T12:11:03;4.55;;;3.20;;
33830;SDS011;20137;48.834;8.732;2022-11-06T12:13:29;4.82;;;3.20;;
33830;SDS011;20137;48.834;8.732;2022-11-06T12:16:09;3.95;;;2.92;;
33830;SDS011;20137;48.834;8.732;2022-11-06T12:23:45;4.25;;;2.78;;
33830;SDS011;20137;48.834;8.732;2022-11-06T12:29:15;3.72;;;2.70;;
33830;SDS011;20137;48.834;8.732;2022-11-06T12:34:16;3.42;;;2.50;;
33830;SDS011;20137;48.834;8.732;2022-11-06T12:36:50;4.90;;;3.70;;
33830;SDS011;20137;48.834;8.732;2022-11-06T12:39:20;3.75;;;2.92;;
33830;SDS011;20137;48.834;8.732;2022-11-06T12:41:48;3.28;;;2.30;;
33830;SDS011;20137;48.834;8.732;2022-11-06T12:44:15;4.55;;;2.30;;
33830;SDS011;20137;48.834;8.732;2022-11-06T12:54:37;8.45;;;4.40;;
33830;SDS011;20137;48.834;8.732;2022-11-06T13:02:23;11.68;;;5.47;;
33830;SDS011;20137;48.834;8.732;2022-11-06T13:07:29;3.83;;;2.25;;
33830;SDS011;20137;48.834;8.732;2022-11-06T13:17:19;3.97;;;2.50;;
33830;SDS011;20137;48.834;8.732;2022-11-06T13:22:41;4.28;;;2.70;;
33830;SDS011;20137;48.834;8.732;2022-11-06T13:25:28;3.72;;;2.70;;
33830;SDS011;20137;48.834;8.732;2022-11-06T13:28:06;5.65;;;3.22;;
33830;SDS011;20137;48.834;8.732;2022-11-06T13:30:33;4.10;;;2.75;;
33830;SDS011;20137;48.834;8.732;2022-11-06T13:35:27;3.72;;;2.50;;
33830;SDS011;20137;48.834;8.732;2022-11-06T13:37:54;3.17;;;2.50;;
33830;SDS011;20137;48.834;8.732;2022-11-06T13:40:26;4.20;;;3.03;;
33830;SDS011;20137;48.834;8.732;2022-11-06T13:43:02;3.55;;;2.42;;
33830;SDS011;20137;48.834;8.732;2022-11-06T13:45:32;4.15;;;3.00;;
33830;SDS011;20137;48.834;8.732;2022-11-06T13:52:53;4.82;;;2.83;;
33830;SDS011;20137;48.834;8.732;2022-11-06T13:55:21;4.07;;;3.08;;
33830;SDS011;20137;48.834;8.732;2022-11-06T13:58:05;9.00;;;4.90;;
33830;SDS011;20137;48.834;8.732;2022-11-06T14:06:08;4.22;;;3.03;;
33830;SDS011;20137;48.834;8.732;2022-11-06T14:08:40;4.03;;;3.13;;
33830;SDS011;20137;48.834;8.732;2022-11-06T14:13:36;3.72;;;3.08;;
33830;SDS011;20137;48.834;8.732;2022-11-06T14:18:29;4.05;;;3.08;;
33830;SDS011;20137;48.834;8.732;2022-11-06T14:23:51;6.38;;;3.80;;
33830;SDS011;20137;48.834;8.732;2022-11-06T14:26:35;5.95;;;4.00;;
33830;SDS011;20137;48.834;8.732;2022-11-06T14:29:40;4.72;;;3.83;;
33830;SDS011;20137;48.834;8.732;2022-11-06T14:32:00;6.30;;;4.40;;
33830;SDS011;20137;48.834;8.732;2022-11-06T14:34:28;5.22;;;3.65;;
33830;SDS011;20137;48.834;8.732;2022-11-06T14:36:54;5.10;;;3.65;;
33830;SDS011;20137;48.834;8.732;2022-11-06T14:40:20;11.98;;;6.65;;
33830;SDS011;20137;48.834;8.732;2022-11-06T14:45:21;31.67;;;13.50;;
33830;SDS011;20137;48.834;8.732;2022-11-06T14:52:44;27.67;;;13.85;;
33830;SDS011;20137;48.834;8.732;2022-11-06T14:55:23;25.58;;;12.75;;
33830;SDS011;20137;48.834;8.732;2022-11-06T14:57:51;27.38;;;14.32;;
33830;SDS011;20137;48.834;8.732;2022-11-06T15:00:34;22.02;;;11.02;;
33830;SDS011;20137;48.834;8.732;2022-11-06T15:03:02;19.10;;;10.50;;
33830;SDS011;20137;48.834;8.732;2022-11-06T15:05:29;11.30;;;7.07;;
33830;SDS011;20137;48.834;8.732;2022-11-06T15:08:00;8.35;;;5.22;;
33830;SDS011;20137;48.834;8.732;2022-11-06T15:15:43;5.60;;;3.75;;
33830;SDS011;20137;48.834;8.732;2022-11-06T15:18:10;4.05;;;3.35;;
33830;SDS011;20137;48.834;8.732;2022-11-06T15:20:37;4.85;;;3.85;;
33830;SDS011;20137;48.834;8.732;2022-11-06T15:23:06;5.05;;;3.63;;
33830;SDS011;20137;48.834;8.732;2022-11-06T15:25:36;6.07;;;3.92;;
33830;SDS011;20137;48.834;8.732;2022-11-06T15:28:11;8.57;;;4.00;;
33830;SDS011;20137;48.834;8.732;2022-11-06T15:30:58;4.72;;;3.65;;
33830;SDS011;20137;48.834;8.732;2022-11-06T15:33:35;4.68;;;2.75;;
33830;SDS011;20137;48.834;8.732;2022-11-06T15:36:05;3.88;;;2.83;;
33830;SDS011;20137;48.834;8.732;2022-11-06T15:38:36;6.70;;;3.10;;
33830;SDS011;20137;48.834;8.732;2022-11-06T15:41:04;6.45;;;3.17;;
33830;SDS011;20137;48.834;8.732;2022-11-06T15:43:32;4.18;;;2.55;;
33830;SDS011;20137;48.834;8.732;2022-11-06T15:48:28;4.05;;;3.05;;
33830;SDS011;20137;48.834;8.732;2022-11-06T15:50:54;5.10;;;3.10;;
33830;SDS011;20137;48.834;8.732;2022-11-06T15:53:21;22.17;;;11.82;;
33830;SDS011;20137;48.834;8.732;2022-11-06T15:58:35;6.70;;;4.60;;
33830;SDS011;20137;48.834;8.732;2022-11-06T16:01:00;7.60;;;4.00;;
33830;SDS011;20137;48.834;8.732;2022-11-06T16:03:27;7.78;;;3.67;;
33830;SDS011;20137;48.834;8.732;2022-11-06T16:05:55;7.38;;;4.60;;
33830;SDS011;20137;48.834;8.732;2022-11-06T16:08:23;7.30;;;4.00;;
33830;SDS011;20137;48.834;8.732;2022-11-06T16:10:49;5.15;;;3.20;;
33830;SDS011;20137;48.834;8.732;2022-11-06T16:13:17;4.68;;;3.20;;
33830;SDS011;20137;48.834;8.732;2022-11-06T16:18:20;9.05;;;4.72;;
33830;SDS011;20137;48.834;8.732;2022-11-06T16:20:48;9.30;;;4.78;;
33830;SDS011;20137;48.834;8.732;2022-11-06T16:23:16;4.30;;;3.13;;
33830;SDS011;20137;48.834;8.732;2022-11-06T16:25:43;4.75;;;3.00;;
33830;SDS011;20137;48.834;8.732;2022-11-06T16:28:14;5.00;;;3.40;;
33830;SDS011;20137;48.834;8.732;2022-11-06T16:30:40;6.78;;;3.45;;
33830;SDS011;20137;48.834;8.732;2022-11-06T16:33:12;4.68;;;3.20;;
33830;SDS011;20137;48.834;8.732;2022-11-06T16:35:43;4.93;;;3.33;;
33830;SDS011;20137;48.834;8.732;2022-11-06T16:40:48;4.88;;;3.10;;
33830;SDS011;20137;48.834;8.732;2022-11-06T16:43:15;4.65;;;3.28;;
33830;SDS011;20137;48.834;8.732;2022-11-06T16:45:52;5.38;;;3.03;;
33830;SDS011;20137;48.834;8.732;2022-11-06T16:48:26;4.68;;;2.90;;
33830;SDS011;20137;48.834;8.732;2022-11-06T16:50:56;4.97;;;3.05;;
33830;SDS011;20137;48.834;8.732;2022-11-06T16:53:24;4.50;;;3.50;;
33830;SDS011;20137;48.834;8.732;2022-11-06T16:55:51;6.18;;;4.10;;
33830;SDS011;20137;48.834;8.732;2022-11-06T16:58:18;6.55;;;4.38;;
33830;SDS011;20137;48.834;8.732;2022-11-06T17:00:44;4.85;;;3.75;;
33830;SDS011;20137;48.834;8.732;2022-11-06T17:03:19;6.95;;;4.53;;
33830;SDS011;20137;48.834;8.732;2022-11-06T17:05:50;5.63;;;3.90;;
33830;SDS011;20137;48.834;8.732;2022-11-06T17:15:35;12.32;;;7.97;;
33830;SDS011;20137;48.834;8.732;2022-11-06T17:18:01;6.82;;;4.30;;
33830;SDS011;20137;48.834;8.732;2022-11-06T17:20:27;5.53;;;3.60;;
33830;SDS011;20137;48.834;8.732;2022-11-06T17:22:53;5.93;;;3.67;;
33830;SDS011;20137;48.834;8.732;2022-11-06T17:25:19;6.97;;;3.95;;